Time;durP1;ratioP1;P1;durP2;ratioP2;P2;SDS_P1;SDS_P2;PMS_P1;PMS_P2;Temp;Humidity;BMP_temperature;BMP_pressure;BME280_temperature;BME280_humidity;BME280_pressure;Samples;Min_cycle;Max_cycle;Signal;HPM_P1;HPM_P2
2022/01/10 00:00:45;;;;;;;12.50;6.80;;;;;;;1.86;100.00;99958.66;4978172;28;20654;-75
2022/01/10 00:03:13;;;;;;;14.43;7.57;;;;;;;1.87;100.00;99960.41;4986916;28;20217;-75
2022/01/10 00:05:40;;;;;;;13.37;8.00;;;;;;;1.88;100.00;99965.53;4974240;28;20217;-76
2022/01/10 00:08:07;;;;;;;14.60;7.10;;;;;;;1.91;100.00;99974.09;4986238;28;20774;-75
2022/01/10 00:10:35;;;;;;;13.53;7.23;;;;;;;1.91;100.00;99974.09;4984252;28;20244;-76
2022/01/10 00:13:01;;;;;;;13.43;7.73;;;;;;;1.91;100.00;99971.53;4984982;28;20232;-76
2022/01/10 00:15:27;;;;;;;16.17;7.40;;;;;;;1.93;100.00;99980.94;4978753;28;20212;-75
2022/01/10 00:17:54;;;;;;;13.93;7.40;;;;;;;1.94;100.00;99987.81;4980757;28;20228;-75
2022/01/10 00:20:21;;;;;;;13.40;7.93;;;;;;;1.96;100.00;99996.38;4985947;28;20228;-76
2022/01/10 00:22:50;;;;;;;16.13;7.63;;;;;;;1.97;100.00;100002.38;4987199;28;20581;-75
2022/01/10 00:25:18;;;;;;;12.83;7.27;;;;;;;1.95;100.00;100007.50;4984076;28;20207;-75
2022/01/10 00:27:45;;;;;;;12.57;7.67;;;;;;;1.98;100.00;100006.66;4983548;28;20220;-75
2022/01/10 00:30:13;;;;;;;18.00;7.63;;;;;;;1.97;100.00;100012.66;4992646;28;20215;-76
2022/01/10 00:32:41;;;;;;;17.67;7.93;;;;;;;1.99;100.00;100014.38;4979115;28;20233;-75
2022/01/10 00:35:09;;;;;;;15.07;7.40;;;;;;;2.01;100.00;100020.38;4989055;28;20207;-76
2022/01/10 00:37:39;;;;;;;13.10;7.43;;;;;;;2.00;100.00;100026.38;4985553;28;20586;-76
2022/01/10 00:40:07;;;;;;;16.70;8.20;;;;;;;2.00;100.00;100030.66;4987352;28;20224;-75
2022/01/10 00:42:33;;;;;;;20.20;8.27;;;;;;;2.01;100.00;100033.22;4985900;28;20224;-75
2022/01/10 00:45:02;;;;;;;17.67;8.33;;;;;;;2.03;100.00;100030.66;4990533;28;20216;-75
2022/01/10 00:47:29;;;;;;;12.10;7.70;;;;;;;2.01;100.00;100040.94;4990880;28;20212;-75
2022/01/10 00:49:55;;;;;;;17.57;8.10;;;;;;;2.02;100.00;100037.53;4987259;28;20204;-75
2022/01/10 00:52:22;;;;;;;14.90;8.63;;;;;;;2.03;100.00;100051.22;4977356;28;20222;-75
2022/01/10 00:54:50;;;;;;;14.93;7.80;;;;;;;2.03;100.00;100052.09;4987220;28;20244;-76
2022/01/10 00:57:17;;;;;;;12.20;7.60;;;;;;;2.01;100.00;100058.09;4984851;28;20245;-75
2022/01/10 00:59:43;;;;;;;15.67;8.23;;;;;;;2.01;100.00;100060.66;4992351;28;20583;-75
2022/01/10 01:02:09;;;;;;;13.30;7.47;;;;;;;2.02;100.00;100067.50;4993311;28;20221;-75
2022/01/10 01:04:36;;;;;;;16.70;8.00;;;;;;;2.00;100.00;100064.94;4988173;28;20205;-75
2022/01/10 01:07:02;;;;;;;14.43;7.83;;;;;;;2.01;100.00;100076.94;4988217;28;20208;-75
2022/01/10 01:09:30;;;;;;;20.43;7.87;;;;;;;2.00;100.00;100074.38;4995204;28;20212;-75
2022/01/10 01:12:17;;;;;;;13.53;6.77;;;;;;;1.99;100.00;100086.38;4987078;28;20424;-75
2022/01/10 01:14:54;;;;;;;12.97;7.70;;;;;;;1.99;100.00;100091.53;5005942;28;20441;-75
2022/01/10 01:17:36;;;;;;;18.70;7.97;;;;;;;1.98;100.00;100099.22;4983404;28;20203;-75
2022/01/10 01:20:27;;;;;;;14.47;8.03;;;;;;;1.99;100.00;100106.94;4977091;28;20197;-74
2022/01/10 01:25:37;;;;;;;11.80;7.13;;;;;;;1.98;100.00;100105.22;4986072;28;20219;-75
2022/01/10 01:28:05;;;;;;;17.50;8.07;;;;;;;1.99;100.00;100111.25;4985861;28;20304;-75
2022/01/10 01:30:32;;;;;;;15.57;7.73;;;;;;;1.99;100.00;100112.09;4991645;28;20197;-75
2022/01/10 01:32:59;;;;;;;15.13;7.90;;;;;;;1.99;100.00;100119.81;4987541;28;20228;-75
2022/01/10 01:35:27;;;;;;;12.43;7.40;;;;;;;1.98;100.00;100120.66;4989784;28;20228;-75
2022/01/10 01:37:55;;;;;;;14.57;8.13;;;;;;;1.98;100.00;100128.38;4981247;28;20216;-75
2022/01/10 01:40:22;;;;;;;17.67;8.60;;;;;;;1.99;100.00;100135.25;4979637;28;20202;-75
2022/01/10 01:42:49;;;;;;;13.73;8.07;;;;;;;1.99;100.00;100135.25;4987671;28;20321;-75
2022/01/10 01:45:17;;;;;;;15.10;7.67;;;;;;;1.99;100.00;100142.94;4986654;28;20207;-75
2022/01/10 01:47:44;;;;;;;13.53;7.77;;;;;;;2.00;100.00;100143.81;4985361;28;20215;-75
2022/01/10 01:50:19;;;;;;;15.63;7.27;;;;;;;2.00;100.00;100144.66;4984843;28;20295;-75
2022/01/10 01:52:46;;;;;;;16.83;7.87;;;;;;;2.00;100.00;100151.50;4994206;28;20262;-75
2022/01/10 01:55:12;;;;;;;15.80;7.67;;;;;;;2.00;100.00;100154.09;4990123;28;20209;-75
2022/01/10 01:57:39;;;;;;;12.80;7.73;;;;;;;1.99;100.00;100152.38;4987762;28;20726;-75
2022/01/10 02:00:07;;;;;;;18.40;7.83;;;;;;;1.99;100.00;100157.53;4987739;28;20209;-75
2022/01/10 02:02:46;;;;;;;19.47;8.13;;;;;;;1.99;100.00;100157.53;4988281;28;20906;-75
2022/01/10 02:05:13;;;;;;;15.53;7.83;;;;;;;1.99;100.00;100166.09;4988899;28;20213;-75
2022/01/10 02:07:39;;;;;;;13.10;8.07;;;;;;;1.99;100.00;100178.09;4987981;28;20276;-75
2022/01/10 02:10:06;;;;;;;16.13;8.10;;;;;;;1.99;100.00;100178.09;4984390;28;20201;-75
2022/01/10 02:12:33;;;;;;;14.77;7.63;;;;;;;1.99;100.00;100183.25;4988103;28;20261;-75
2022/01/10 02:15:01;;;;;;;16.43;7.33;;;;;;;1.98;100.00;100187.50;4985899;28;20349;-75
2022/01/10 02:17:34;;;;;;;14.53;8.10;;;;;;;1.99;100.00;100184.09;4991692;28;20201;-74
2022/01/10 02:20:09;;;;;;;15.70;7.83;;;;;;;2.00;100.00;100190.94;4974684;28;20745;-75
2022/01/10 02:22:38;;;;;;;14.30;7.77;;;;;;;1.99;100.00;100190.97;4985723;28;20227;-75
2022/01/10 02:25:36;;;;;;;14.07;7.73;;;;;;;1.98;100.00;100200.38;4984050;28;20593;-75
2022/01/10 02:28:03;;;;;;;18.70;8.13;;;;;;;1.99;100.00;100199.53;4983762;28;20289;-74
2022/01/10 02:30:30;;;;;;;24.63;8.83;;;;;;;1.98;100.00;100204.66;4989809;28;20205;-75
2022/01/10 02:32:58;;;;;;;17.70;7.90;;;;;;;1.98;100.00;100208.06;5004250;28;20213;-75
2022/01/10 02:35:28;;;;;;;16.07;8.10;;;;;;;1.97;100.00;100210.66;4977383;28;20201;-75
2022/01/10 02:37:56;;;;;;;16.00;7.73;;;;;;;1.98;100.00;100214.94;4982453;28;20209;-75
2022/01/10 02:40:26;;;;;;;16.87;7.80;;;;;;;1.99;100.00;100219.25;4979020;28;20206;-75
2022/01/10 02:42:53;;;;;;;20.20;8.60;;;;;;;1.97;100.00;100221.81;4988174;28;20276;-75
2022/01/10 02:45:21;;;;;;;17.60;8.10;;;;;;;1.98;100.00;100231.22;4980645;28;20800;-75
2022/01/10 02:47:49;;;;;;;15.43;8.20;;;;;;;1.97;100.00;100234.66;4982034;28;20201;-75
2022/01/10 02:50:17;;;;;;;18.83;7.93;;;;;;;1.96;100.00;100229.50;4987819;28;20208;-75
2022/01/10 02:52:46;;;;;;;16.23;7.90;;;;;;;1.98;100.00;100235.53;4985189;28;20235;-74
2022/01/10 02:55:13;;;;;;;15.63;8.10;;;;;;;1.96;100.00;100238.06;4986739;28;20221;-75
2022/01/10 02:57:40;;;;;;;17.03;7.63;;;;;;;1.95;100.00;100244.06;4980770;28;20829;-75
2022/01/10 03:00:10;;;;;;;15.17;7.63;;;;;;;1.95;100.00;100249.22;4998553;28;20210;-75
2022/01/10 03:02:37;;;;;;;13.43;8.07;;;;;;;1.96;100.00;100257.81;4993392;28;20248;-74
2022/01/10 03:05:06;;;;;;;15.43;7.97;;;;;;;1.96;100.00;100255.22;4988166;28;20189;-75
2022/01/10 03:07:32;;;;;;;17.53;8.50;;;;;;;1.94;100.00;100265.50;4993428;28;20213;-74
2022/01/10 03:10:00;;;;;;;18.63;8.43;;;;;;;1.94;100.00;100268.06;4988147;28;20200;-75
2022/01/10 03:12:30;;;;;;;21.57;8.43;;;;;;;1.95;100.00;100271.50;5000796;28;20582;-75
2022/01/10 03:14:56;;;;;;;16.80;8.07;;;;;;;1.93;100.00;100265.50;4983744;28;21026;-74
2022/01/10 03:17:23;;;;;;;16.13;8.10;;;;;;;1.92;100.00;100277.50;4990101;28;20284;-75
2022/01/10 03:19:49;;;;;;;15.27;7.67;;;;;;;1.88;100.00;100276.63;4985179;28;20219;-75
2022/01/10 03:22:16;;;;;;;19.17;9.10;;;;;;;1.85;100.00;100280.91;4988207;28;20213;-75
2022/01/10 03:24:43;;;;;;;18.60;7.93;;;;;;;1.82;100.00;100280.88;4986947;28;20680;-74
2022/01/10 03:27:11;;;;;;;16.27;7.83;;;;;;;1.79;100.00;100284.28;4986591;28;20287;-75
2022/01/10 03:29:37;;;;;;;15.40;8.07;;;;;;;1.78;100.00;100290.31;4979212;28;20205;-75
2022/01/10 03:32:05;;;;;;;16.50;8.53;;;;;;;1.80;100.00;100300.59;4996964;28;20230;-74
2022/01/10 03:34:32;;;;;;;15.23;8.03;;;;;;;1.80;100.00;100301.44;4979445;28;20901;-74
2022/01/10 03:36:59;;;;;;;21.00;8.10;;;;;;;1.80;100.00;100316.88;4983287;28;20201;-75
2022/01/10 03:39:26;;;;;;;15.27;7.73;;;;;;;1.82;100.00;100314.31;4983559;28;20201;-75
2022/01/10 03:41:52;;;;;;;22.97;9.23;;;;;;;1.83;100.00;100318.59;4986782;28;20213;-75
2022/01/10 03:44:21;;;;;;;16.37;8.40;;;;;;;1.83;100.00;100316.00;4986928;28;20201;-75
2022/01/10 03:46:47;;;;;;;17.17;7.90;;;;;;;1.85;100.00;100329.75;5000640;28;20288;-75
2022/01/10 03:49:14;;;;;;;14.90;8.53;;;;;;;1.85;100.00;100334.91;4992755;28;20197;-75
2022/01/10 03:51:41;;;;;;;20.57;8.93;;;;;;;1.85;100.00;100340.88;4985476;28;20428;-74
2022/01/10 03:54:08;;;;;;;16.00;8.83;;;;;;;1.85;100.00;100342.63;4987455;28;20217;-75
2022/01/10 03:56:35;;;;;;;19.83;9.13;;;;;;;1.83;100.00;100350.31;4978279;28;20209;-75
2022/01/10 03:59:05;;;;;;;18.70;8.67;;;;;;;1.84;100.00;100348.59;4987536;28;20208;-74
2022/01/10 04:01:35;;;;;;;19.30;8.73;;;;;;;1.83;100.00;100352.88;4987058;28;20206;-75
2022/01/10 04:04:02;;;;;;;19.50;8.27;;;;;;;1.82;100.00;100358.88;4979443;28;20222;-75
2022/01/10 04:06:28;;;;;;;18.30;8.67;;;;;;;1.82;100.00;100365.72;4975350;28;20216;-74
2022/01/10 04:08:54;;;;;;;16.13;8.57;;;;;;;1.81;100.00;100364.00;4987468;28;20221;-74
2022/01/10 04:11:21;;;;;;;13.77;8.33;;;;;;;1.81;100.00;100367.44;4980683;28;20285;-75
2022/01/10 04:13:47;;;;;;;21.10;9.00;;;;;;;1.82;100.00;100381.16;4981562;28;20227;-75
2022/01/10 04:16:14;;;;;;;17.23;8.40;;;;;;;1.80;100.00;100381.13;4981452;28;20686;-75
2022/01/10 04:18:43;;;;;;;17.97;8.53;;;;;;;1.79;100.00;100378.56;4982185;28;20208;-75
2022/01/10 04:21:10;;;;;;;17.63;8.60;;;;;;;1.78;100.00;100380.28;4981972;28;20193;-75
2022/01/10 04:23:36;;;;;;;19.23;8.03;;;;;;;1.76;100.00;100381.09;4981741;28;20833;-74
2022/01/10 04:26:03;;;;;;;18.57;8.23;;;;;;;1.77;100.00;100395.69;4986110;28;20204;-75
2022/01/10 04:28:34;;;;;;;16.40;8.37;;;;;;;1.78;100.00;100400.00;4982473;28;20284;-75
2022/01/10 04:31:00;;;;;;;21.90;8.53;;;;;;;1.78;100.00;100408.56;4985555;28;20294;-75
2022/01/10 04:33:29;;;;;;;17.53;8.20;;;;;;;1.77;100.00;100406.81;4982408;28;20313;-74
2022/01/10 04:35:58;;;;;;;14.03;8.57;;;;;;;1.78;100.00;100402.56;4986124;28;20589;-74
2022/01/10 04:38:27;;;;;;;21.63;8.80;;;;;;;1.79;100.00;100407.69;4988416;28;20678;-74
2022/01/10 04:40:54;;;;;;;15.40;8.20;;;;;;;1.81;100.00;100415.41;4981025;28;20217;-75
2022/01/10 04:43:21;;;;;;;15.53;8.50;;;;;;;1.80;100.00;100418.84;4984934;28;20288;-75
2022/01/10 04:45:47;;;;;;;17.37;8.77;;;;;;;1.80;100.00;100418.84;4983726;28;20209;-75
2022/01/10 04:48:17;;;;;;;15.17;8.03;;;;;;;1.78;100.00;100429.13;4986272;28;20227;-75
2022/01/10 04:51:10;;;;;;;20.13;8.10;;;;;;;1.78;100.00;100434.25;4985398;28;20209;-75
2022/01/10 04:53:38;;;;;;;15.67;7.73;;;;;;;1.76;100.00;100432.50;4978505;28;20229;-75
2022/01/10 04:56:05;;;;;;;17.03;8.83;;;;;;;1.75;100.00;100431.66;4986156;28;20212;-75
2022/01/10 04:58:34;;;;;;;20.30;8.67;;;;;;;1.76;100.00;100441.09;4987435;28;20205;-75
2022/01/10 05:01:02;;;;;;;20.13;8.57;;;;;;;1.75;100.00;100451.38;4979875;28;20213;-74
2022/01/10 05:03:29;;;;;;;17.23;9.10;;;;;;;1.74;100.00;100457.34;4989669;28;20217;-74
2022/01/10 05:05:56;;;;;;;19.37;8.60;;;;;;;1.75;100.00;100465.06;4974127;28;20200;-75
2022/01/10 05:08:24;;;;;;;17.10;8.40;;;;;;;1.75;100.00;100471.94;4986363;28;20197;-75
2022/01/10 05:10:54;;;;;;;17.33;8.53;;;;;;;1.76;100.00;100477.09;4987528;28;20256;-75
2022/01/10 05:13:21;;;;;;;17.63;8.27;;;;;;;1.76;100.00;100476.22;5003139;28;20229;-75
2022/01/10 05:15:49;;;;;;;17.10;8.10;;;;;;;1.78;100.00;100492.53;4986732;28;20230;-76
2022/01/10 05:18:16;;;;;;;18.43;8.63;;;;;;;1.77;100.00;100491.66;4987230;28;20204;-75
2022/01/10 05:20:43;;;;;;;19.07;8.87;;;;;;;1.79;100.00;100499.38;4984607;28;20328;-75
2022/01/10 05:23:09;;;;;;;20.23;9.23;;;;;;;1.78;100.00;100495.97;4987874;28;20327;-75
2022/01/10 05:25:40;;;;;;;26.17;9.23;;;;;;;1.79;100.00;100499.38;4988992;28;20682;-75
2022/01/10 05:28:11;;;;;;;21.13;8.60;;;;;;;1.78;100.00;100506.25;4984504;28;20230;-75
2022/01/10 05:30:41;;;;;;;20.87;8.27;;;;;;;1.80;100.00;100514.81;5005314;28;20197;-75
2022/01/10 05:33:09;;;;;;;21.13;8.90;;;;;;;1.80;100.00;100506.25;4987704;28;20304;-74
2022/01/10 05:35:44;;;;;;;16.40;7.80;;;;;;;1.80;100.00;100519.97;4987956;28;20224;-75
2022/01/10 05:38:11;;;;;;;20.53;8.23;;;;;;;1.82;100.00;100525.97;4990018;28;20236;-75
2022/01/10 05:40:37;;;;;;;23.43;9.73;;;;;;;1.82;100.00;100531.13;4990119;28;20213;-75
2022/01/10 05:43:04;;;;;;;20.63;8.70;;;;;;;1.84;100.00;100536.28;4984898;28;20283;-75
2022/01/10 05:45:33;;;;;;;18.13;9.13;;;;;;;1.83;100.00;100538.00;4990821;28;20212;-75
2022/01/10 05:48:07;;;;;;;19.73;8.67;;;;;;;1.86;100.00;100539.72;4985759;28;20206;-75
2022/01/10 05:50:36;;;;;;;25.27;9.23;;;;;;;1.84;100.00;100544.84;4984103;28;20666;-75
2022/01/10 05:53:08;;;;;;;20.90;9.47;;;;;;;1.85;100.00;100556.84;4995519;28;20221;-75
2022/01/10 05:55:35;;;;;;;18.33;8.70;;;;;;;1.86;100.00;100556.00;4986181;28;20209;-75
2022/01/10 05:58:02;;;;;;;17.43;8.07;;;;;;;1.86;100.00;100558.56;4987050;28;20198;-75
2022/01/10 06:00:29;;;;;;;21.07;9.40;;;;;;;1.87;100.00;100573.16;4979160;28;20324;-75
2022/01/10 06:02:56;;;;;;;18.10;8.87;;;;;;;1.87;100.00;100577.44;4982537;28;20635;-74
2022/01/10 06:05:32;;;;;;;19.17;8.83;;;;;;;1.87;100.00;100583.44;4978830;28;20300;-75
2022/01/10 06:08:03;;;;;;;23.00;9.37;;;;;;;1.88;100.00;100584.28;4989002;28;20208;-74
2022/01/10 06:10:30;;;;;;;23.73;9.50;;;;;;;1.88;100.00;100598.03;4987674;28;20200;-75
2022/01/10 06:13:05;;;;;;;23.43;9.13;;;;;;;1.89;100.00;100601.47;4985217;28;20224;-75
2022/01/10 06:15:31;;;;;;;21.97;9.17;;;;;;;1.90;100.00;100605.75;4981932;28;20761;-74
2022/01/10 06:18:00;;;;;;;21.23;9.10;;;;;;;1.89;100.00;100611.75;4982810;28;20319;-75
2022/01/10 06:20:27;;;;;;;22.43;8.87;;;;;;;1.89;100.00;100610.03;4985987;28;20206;-75
2022/01/10 06:22:53;;;;;;;24.80;9.03;;;;;;;1.88;100.00;100626.31;4987930;28;20256;-75
2022/01/10 06:25:22;;;;;;;18.90;8.83;;;;;;;1.91;100.00;100633.19;4987327;28;20619;-75
2022/01/10 06:27:48;;;;;;;17.53;9.00;;;;;;;1.91;100.00;100643.47;4984541;28;20256;-75
2022/01/10 06:30:15;;;;;;;20.77;9.50;;;;;;;1.91;100.00;100647.75;4986237;28;20201;-75
2022/01/10 06:32:44;;;;;;;24.57;10.33;;;;;;;1.90;100.00;100654.63;4978002;28;20255;-75
2022/01/10 06:35:15;;;;;;;26.43;10.20;;;;;;;1.91;100.00;100660.63;4988402;28;20218;-75
2022/01/10 06:37:41;;;;;;;21.23;9.53;;;;;;;1.92;100.00;100667.47;4985655;28;20778;-75
2022/01/10 06:40:11;;;;;;;18.07;9.47;;;;;;;1.90;100.00;100670.06;4994351;28;20207;-75
2022/01/10 06:42:42;;;;;;;20.23;9.43;;;;;;;1.91;100.00;100679.47;4985944;28;20315;-75
2022/01/10 06:45:10;;;;;;;21.87;9.13;;;;;;;1.91;100.00;100686.34;4987848;28;20233;-75
2022/01/10 06:47:38;;;;;;;23.03;9.83;;;;;;;1.91;100.00;100688.91;4989584;28;20240;-75
2022/01/10 06:50:06;;;;;;;20.53;9.47;;;;;;;1.92;100.00;100690.59;4986502;28;20746;-75
2022/01/10 06:52:39;;;;;;;21.43;9.20;;;;;;;1.91;100.00;100697.47;4980003;28;20932;-74
2022/01/10 06:55:07;;;;;;;18.17;8.97;;;;;;;1.91;100.00;100702.63;4981512;28;20209;-74
2022/01/10 06:57:33;;;;;;;18.13;8.43;;;;;;;1.90;100.00;100708.63;4979541;28;20205;-75
2022/01/10 07:00:03;;;;;;;25.43;9.73;;;;;;;1.90;100.00;100708.63;4980913;28;20216;-74
2022/01/10 07:02:32;;;;;;;23.67;9.63;;;;;;;1.91;100.00;100727.47;4982888;28;20228;-75
2022/01/10 07:04:59;;;;;;;21.77;9.63;;;;;;;1.89;100.00;100732.59;4986540;28;20194;-75
2022/01/10 07:07:25;;;;;;;18.50;8.60;;;;;;;1.89;100.00;100735.16;4980728;28;20206;-75
2022/01/10 07:10:02;;;;;;;16.47;7.47;;;;;;;1.89;100.00;100746.31;4973457;28;20697;-75
2022/01/10 07:12:31;;;;;;;19.17;9.47;;;;;;;1.89;100.00;100748.03;4990276;28;20220;-75
2022/01/10 07:15:06;;;;;;;23.20;8.73;;;;;;;1.89;100.00;100755.75;5000215;28;20236;-75
2022/01/10 07:17:33;;;;;;;17.83;8.93;;;;;;;1.89;100.00;100758.31;4977769;28;20233;-74
2022/01/10 07:20:01;;;;;;;19.17;9.23;;;;;;;1.89;100.00;100769.47;4982985;28;20935;-75
2022/01/10 07:22:33;;;;;;;24.63;9.53;;;;;;;1.91;100.00;100774.63;4986580;28;20741;-75
2022/01/10 07:25:01;;;;;;;18.60;8.57;;;;;;;1.91;100.00;100777.19;4986328;28;20200;-75
2022/01/10 07:27:28;;;;;;;22.20;9.07;;;;;;;1.94;100.00;100778.94;4982797;28;20199;-76
2022/01/10 07:29:54;;;;;;;22.13;8.67;;;;;;;1.94;100.00;100789.25;4980069;28;20206;-75
2022/01/10 07:32:21;;;;;;;27.33;11.70;;;;;;;1.94;100.00;100789.25;4981687;28;20229;-74
2022/01/10 07:34:48;;;;;;;23.43;10.03;;;;;;;1.95;100.00;100793.53;4980864;28;20216;-75
2022/01/10 07:37:16;;;;;;;21.20;9.87;;;;;;;1.96;100.00;100802.97;4980649;28;20205;-75
2022/01/10 07:39:42;;;;;;;23.97;10.27;;;;;;;1.97;100.00;100799.53;4983228;28;20442;-74
2022/01/10 07:42:10;;;;;;;17.97;9.50;;;;;;;1.98;100.00;100812.41;4981341;28;20235;-75
2022/01/10 07:44:51;;;;;;;19.03;9.57;;;;;;;1.98;100.00;100812.41;4985639;28;20205;-74
2022/01/10 07:47:18;;;;;;;20.60;10.03;;;;;;;1.99;100.00;100816.72;4988209;28;20209;-75
2022/01/10 07:49:45;;;;;;;21.23;8.73;;;;;;;1.99;100.00;100819.31;4986709;28;20210;-74
2022/01/10 07:52:11;;;;;;;18.53;9.57;;;;;;;2.01;100.00;100827.03;4984796;28;20220;-75
2022/01/10 07:54:37;;;;;;;24.10;8.80;;;;;;;2.02;100.00;100827.06;4982083;28;20205;-75
2022/01/10 07:57:05;;;;;;;21.10;9.23;;;;;;;2.02;100.00;100839.91;4978904;28;20193;-75
2022/01/10 07:59:32;;;;;;;20.87;8.90;;;;;;;2.04;100.00;100842.50;4984758;28;20217;-75
2022/01/10 08:01:59;;;;;;;18.37;8.80;;;;;;;2.04;100.00;100848.53;4984461;28;20227;-74
2022/01/10 08:04:25;;;;;;;17.47;9.23;;;;;;;2.06;100.00;100851.97;4983521;28;20204;-75
2022/01/10 08:06:52;;;;;;;20.93;9.73;;;;;;;2.07;100.00;100853.69;4983503;28;20228;-75
2022/01/10 08:09:18;;;;;;;21.27;9.97;;;;;;;2.08;100.00;100860.56;4977735;28;20216;-75
2022/01/10 08:11:44;;;;;;;21.23;9.23;;;;;;;2.08;100.00;100860.56;4983366;28;20205;-75
2022/01/10 08:14:11;;;;;;;21.67;9.97;;;;;;;2.11;100.00;100862.31;4987937;28;20220;-75
2022/01/10 08:16:38;;;;;;;26.20;10.03;;;;;;;2.12;100.00;100868.31;4987859;28;20217;-75
2022/01/10 08:19:06;;;;;;;30.40;10.67;;;;;;;2.14;100.00;100871.78;4986889;28;20206;-75
2022/01/10 08:21:32;;;;;;;24.23;11.13;;;;;;;2.15;100.00;100878.66;4985136;28;20208;-75
2022/01/10 08:23:59;;;;;;;24.87;10.10;;;;;;;2.17;100.00;100884.69;4977402;28;20224;-75
2022/01/10 08:26:25;;;;;;;32.73;12.13;;;;;;;2.18;100.00;100886.38;4983532;28;20209;-75
2022/01/10 08:28:52;;;;;;;31.60;10.80;;;;;;;2.19;100.00;100890.69;4989939;28;20210;-75
2022/01/10 08:31:18;;;;;;;23.80;11.73;;;;;;;2.20;100.00;100895.88;4986446;28;20681;-75
2022/01/10 08:33:47;;;;;;;26.57;11.00;;;;;;;2.21;100.00;100900.16;4982865;28;20591;-75
2022/01/10 08:36:13;;;;;;;34.07;11.97;;;;;;;2.23;100.00;100908.78;4980365;28;20313;-75
2022/01/10 08:38:40;;;;;;;22.57;10.77;;;;;;;2.24;100.00;100909.63;4986438;28;20213;-75
2022/01/10 08:41:06;;;;;;;33.77;11.90;;;;;;;2.24;100.00;100913.06;4978263;28;20372;-75
2022/01/10 08:43:33;;;;;;;32.80;12.77;;;;;;;2.26;100.00;100923.38;4985401;28;20229;-75
2022/01/10 08:45:59;;;;;;;28.90;11.40;;;;;;;2.30;100.00;100932.00;4991890;28;20219;-75
2022/01/10 08:48:25;;;;;;;35.53;13.23;;;;;;;2.30;100.00;100926.84;4987067;28;20223;-74
2022/01/10 08:50:53;;;;;;;37.87;12.27;;;;;;;2.32;100.00;100932.88;4987821;28;20238;-75
2022/01/10 08:53:20;;;;;;;29.63;11.80;;;;;;;2.34;100.00;100938.91;4987779;28;20244;-75
2022/01/10 08:55:47;;;;;;;49.27;17.93;;;;;;;2.34;100.00;100954.34;4988698;28;20228;-74
2022/01/10 08:58:14;;;;;;;40.93;15.93;;;;;;;2.34;100.00;100956.91;4987157;28;20296;-74
2022/01/10 09:00:40;;;;;;;41.33;13.77;;;;;;;2.35;100.00;100958.66;4990853;28;20324;-74
2022/01/10 09:03:07;;;;;;;34.67;12.70;;;;;;;2.36;100.00;100960.41;4993730;28;20232;-74
2022/01/10 09:05:33;;;;;;;31.37;11.17;;;;;;;2.36;100.00;100971.56;4995772;28;20192;-75
2022/01/10 09:08:02;;;;;;;37.57;11.57;;;;;;;2.37;100.00;100967.25;4990846;28;20591;-75
2022/01/10 09:10:29;;;;;;;43.37;18.13;;;;;;;2.39;100.00;100974.19;4994190;28;20215;-75
2022/01/10 09:12:56;;;;;;;63.00;28.83;;;;;;;2.39;100.00;100971.59;4986281;28;20237;-75
2022/01/10 09:15:22;;;;;;;46.17;20.10;;;;;;;2.41;100.00;100979.31;4986056;28;20439;-75
2022/01/10 09:17:49;;;;;;;37.30;13.87;;;;;;;2.41;100.00;100989.59;4985285;28;20623;-75
2022/01/10 09:20:15;;;;;;;38.40;15.47;;;;;;;2.42;100.00;100991.34;4984170;28;20210;-75
2022/01/10 09:22:42;;;;;;;39.00;15.90;;;;;;;2.45;100.00;100992.25;4984348;28;20226;-75
2022/01/10 09:25:10;;;;;;;35.93;11.83;;;;;;;2.45;100.00;100997.41;4991412;28;20201;-75
2022/01/10 09:27:36;;;;;;;23.00;10.43;;;;;;;2.44;100.00;100995.66;4994573;28;20205;-75
2022/01/10 09:30:04;;;;;;;28.70;12.17;;;;;;;2.48;100.00;101006.88;4987929;28;20394;-75
2022/01/10 09:32:30;;;;;;;31.53;11.60;;;;;;;2.50;100.00;101005.19;4996401;28;20228;-74
2022/01/10 09:34:57;;;;;;;32.43;12.20;;;;;;;2.51;100.00;101011.19;4991768;28;20276;-75
2022/01/10 09:37:25;;;;;;;28.77;12.63;;;;;;;2.54;100.00;101013.81;4987990;28;20578;-75
2022/01/10 09:39:51;;;;;;;35.40;14.13;;;;;;;2.55;100.00;101015.53;4981930;28;20295;-75
2022/01/10 09:42:19;;;;;;;27.27;10.57;;;;;;;2.52;100.00;101023.25;4988802;28;20230;-75
2022/01/10 09:44:46;;;;;;;28.57;10.47;;;;;;;2.51;100.00;101022.34;4988777;28;20207;-75
2022/01/10 09:47:12;;;;;;;28.93;11.03;;;;;;;2.54;100.00;101024.13;4988820;28;20313;-74
2022/01/10 09:49:39;;;;;;;30.83;11.27;;;;;;;2.56;100.00;101033.56;4982967;28;20856;-75
2022/01/10 09:52:05;;;;;;;31.63;10.67;;;;;;;2.58;100.00;101031.88;4991102;28;20220;-75
2022/01/10 09:54:32;;;;;;;30.10;10.53;;;;;;;2.60;100.00;101039.63;4983029;28;20198;-75
2022/01/10 09:56:58;;;;;;;32.63;11.53;;;;;;;2.61;100.00;101047.38;4982170;28;20225;-75
2022/01/10 09:59:26;;;;;;;34.67;12.17;;;;;;;2.60;100.00;101055.97;4984123;28;20229;-75
2022/01/10 10:01:53;;;;;;;31.43;11.00;;;;;;;2.61;100.00;101051.66;4981569;28;20209;-75
2022/01/10 10:04:20;;;;;;;32.00;11.27;;;;;;;2.64;100.00;101060.31;4996735;28;20251;-75
2022/01/10 10:06:47;;;;;;;37.97;12.10;;;;;;;2.64;100.00;101062.03;4984678;28;20201;-75
2022/01/10 10:09:14;;;;;;;36.20;11.20;;;;;;;2.65;100.00;101074.03;4989573;28;20205;-75
2022/01/10 10:11:43;;;;;;;33.40;10.70;;;;;;;2.61;100.00;101069.69;4987347;28;20421;-75
2022/01/10 10:14:12;;;;;;;37.90;11.10;;;;;;;2.57;100.00;101071.38;4987109;28;20216;-75
2022/01/10 10:16:47;;;;;;;29.50;11.00;;;;;;;2.56;100.00;101071.34;4987660;28;20305;-75
2022/01/10 10:19:14;;;;;;;30.43;11.57;;;;;;;2.55;100.00;101083.34;4990946;28;20236;-74
2022/01/10 10:21:41;;;;;;;29.43;10.67;;;;;;;2.60;100.00;101083.41;4986137;28;20209;-75
2022/01/10 10:24:08;;;;;;;27.97;10.40;;;;;;;2.57;100.00;101088.50;4991576;28;20218;-75
2022/01/10 10:26:34;;;;;;;33.10;11.47;;;;;;;2.57;100.00;101091.97;4990137;28;20662;-75
2022/01/10 10:29:01;;;;;;;37.37;12.00;;;;;;;2.57;100.00;101094.53;4985711;28;20216;-75
2022/01/10 10:31:30;;;;;;;32.87;9.77;;;;;;;2.57;100.00;101099.69;4989839;28;20539;-75
2022/01/10 10:34:00;;;;;;;34.33;10.27;;;;;;;2.60;100.00;101104.00;4985199;28;20233;-75
2022/01/10 10:36:28;;;;;;;36.90;11.77;;;;;;;2.62;100.00;101110.91;4984287;28;20220;-75
2022/01/10 10:38:56;;;;;;;26.10;9.90;;;;;;;2.67;100.00;101107.53;4987342;28;20214;-75
2022/01/10 10:41:22;;;;;;;23.53;10.73;;;;;;;2.67;100.00;101112.69;4986914;28;20698;-75
2022/01/10 10:43:50;;;;;;;28.33;10.37;;;;;;;2.69;100.00;101123.84;4991044;28;20236;-75
2022/01/10 10:46:18;;;;;;;25.67;9.83;;;;;;;2.68;100.00;101119.56;4986704;28;20265;-75
2022/01/10 10:48:46;;;;;;;24.30;9.57;;;;;;;2.70;100.00;101121.31;4993292;28;20209;-75
2022/01/10 10:51:13;;;;;;;20.00;8.73;;;;;;;2.61;100.00;101134.91;4985474;28;20445;-75
2022/01/10 10:53:41;;;;;;;22.07;9.57;;;;;;;2.60;100.00;101129.75;4983787;28;20596;-75
2022/01/10 10:56:08;;;;;;;24.77;9.33;;;;;;;2.60;100.00;101140.03;4983917;28;20227;-75
2022/01/10 10:58:35;;;;;;;17.50;9.63;;;;;;;2.60;100.00;101145.19;4976576;28;20659;-75
2022/01/10 11:01:03;;;;;;;22.40;10.30;;;;;;;2.60;100.00;101147.75;4980851;28;20211;-75
2022/01/10 11:03:29;;;;;;;19.07;10.37;;;;;;;2.60;100.00;101147.75;4987520;28;20583;-75
2022/01/10 11:05:59;;;;;;;22.83;9.97;;;;;;;2.58;100.00;101150.31;4978993;28;20304;-75
2022/01/10 11:08:31;;;;;;;23.93;10.50;;;;;;;2.56;100.00;101153.72;4985574;28;20197;-75
2022/01/10 11:10:58;;;;;;;30.80;13.77;;;;;;;2.58;100.00;101157.19;4985480;28;20205;-75
2022/01/10 11:13:27;;;;;;;29.87;12.43;;;;;;;2.59;100.00;101161.50;4985837;28;20324;-75
2022/01/10 11:15:55;;;;;;;33.07;11.27;;;;;;;2.54;100.00;101178.56;4986510;28;20316;-75
2022/01/10 11:18:22;;;;;;;25.90;10.80;;;;;;;2.50;100.00;101177.66;4986760;28;20213;-75
2022/01/10 11:20:50;;;;;;;23.90;10.93;;;;;;;2.52;100.00;101185.41;4978016;28;20562;-75